Time;durP1;ratioP1;P1;durP2;ratioP2;P2;SDS_P1;SDS_P2;PMS_P1;PMS_P2;Temp;Humidity;BMP_temperature;BMP_pressure;BME280_temperature;BME280_humidity;BME280_pressure;Samples;Min_cycle;Max_cycle;Signal;HPM_P1;HPM_P2
2022/03/06 00:00:46;;;;;;;1.50;1.40;;;18.10;33.20;;;;;;5054742;28;20161;-83
2022/03/06 00:03:13;;;;;;;1.65;1.40;;;18.10;33.30;;;;;;5021213;28;20200;-83
2022/03/06 00:05:41;;;;;;;1.50;1.40;;;18.00;33.30;;;;;;5020626;28;20201;-83
2022/03/06 00:08:09;;;;;;;1.30;1.20;;;18.10;33.50;;;;;;5037631;28;20221;-83
2022/03/06 00:10:37;;;;;;;1.42;1.08;;;18.00;33.40;;;;;;5040347;28;20181;-82
2022/03/06 00:13:03;;;;;;;1.67;1.40;;;18.10;33.50;;;;;;5057568;28;20185;-82
2022/03/06 00:15:31;;;;;;;1.48;1.38;;;18.00;33.30;;;;;;5075107;28;20283;-83
2022/03/06 00:17:58;;;;;;;1.95;1.42;;;18.00;33.40;;;;;;5057398;28;20220;-83
2022/03/06 00:20:25;;;;;;;1.90;1.70;;;18.00;33.50;;;;;;5024042;28;20181;-83
2022/03/06 00:22:52;;;;;;;1.45;1.35;;;18.00;33.60;;;;;;5040620;28;20192;-84
2022/03/06 00:25:18;;;;;;;1.60;1.50;;;18.00;33.60;;;;;;5040407;28;20173;-83
2022/03/06 00:27:44;;;;;;;1.48;1.38;;;18.00;33.60;;;;;;5058095;28;20189;-83
2022/03/06 00:30:11;;;;;;;1.70;1.50;;;18.00;33.60;;;;;;5040253;28;20239;-83
2022/03/06 00:32:38;;;;;;;2.13;1.48;;;18.00;33.70;;;;;;5040686;28;20201;-83
2022/03/06 00:35:06;;;;;;;2.10;1.50;;;18.00;33.90;;;;;;5040492;28;20232;-84
2022/03/06 00:37:32;;;;;;;1.83;1.45;;;18.00;33.80;;;;;;5024126;28;20656;-83
2022/03/06 00:39:58;;;;;;;1.50;1.40;;;18.00;33.70;;;;;;5040475;28;20618;-83
2022/03/06 00:42:25;;;;;;;1.38;1.27;;;18.00;33.70;;;;;;5058123;28;20199;-84
2022/03/06 00:44:53;;;;;;;1.92;1.45;;;18.00;33.70;;;;;;5057606;28;20162;-84
2022/03/06 00:47:21;;;;;;;2.35;1.33;;;18.00;33.80;;;;;;5040583;28;20217;-83
2022/03/06 00:49:46;;;;;;;1.67;1.50;;;18.00;33.80;;;;;;5040561;28;20670;-83
2022/03/06 00:52:14;;;;;;;1.60;1.30;;;18.00;33.90;;;;;;5074659;28;20158;-83
2022/03/06 00:54:41;;;;;;;2.55;1.40;;;17.90;33.90;;;;;;5023806;28;20264;-83
2022/03/06 00:57:08;;;;;;;1.90;1.40;;;18.00;33.90;;;;;;5023523;28;20235;-82
2022/03/06 00:59:35;;;;;;;1.67;1.40;;;18.00;34.00;;;;;;5040011;28;20238;-82
2022/03/06 01:02:04;;;;;;;1.65;1.40;;;17.90;34.10;;;;;;5056561;28;20268;-83
2022/03/06 01:04:32;;;;;;;1.40;1.20;;;17.90;34.10;;;;;;5040068;28;20189;-83
2022/03/06 01:06:59;;;;;;;1.70;1.60;;;17.90;34.10;;;;;;5039712;28;20251;-82
2022/03/06 01:09:26;;;;;;;1.73;1.50;;;17.90;34.10;;;;;;5039675;28;20215;-83
2022/03/06 01:11:53;;;;;;;1.45;1.30;;;17.90;34.10;;;;;;5056056;28;20200;-83
2022/03/06 01:14:19;;;;;;;1.58;1.40;;;17.90;34.10;;;;;;5023174;28;20181;-82
2022/03/06 01:16:46;;;;;;;1.58;1.48;;;17.90;34.20;;;;;;5039832;28;20181;-83
2022/03/06 01:19:14;;;;;;;1.33;1.20;;;17.90;34.20;;;;;;5023129;28;20192;-82
2022/03/06 01:21:40;;;;;;;1.60;1.38;;;17.90;34.10;;;;;;5055688;28;20187;-83
2022/03/06 01:24:07;;;;;;;1.30;1.20;;;17.90;34.10;;;;;;5055972;28;20544;-83
2022/03/06 01:26:34;;;;;;;1.50;1.33;;;17.90;34.10;;;;;;5074674;28;20636;-82
2022/03/06 01:29:00;;;;;;;1.77;1.30;;;17.90;34.20;;;;;;5056689;28;20613;-83
2022/03/06 01:31:26;;;;;;;1.20;1.10;;;17.90;34.30;;;;;;5073378;28;20694;-82
2022/03/06 01:33:51;;;;;;;2.05;1.40;;;17.90;34.40;;;;;;5056383;28;20220;-83
2022/03/06 01:36:17;;;;;;;1.80;1.52;;;17.80;35.10;;;;;;5040078;28;20708;-82
2022/03/06 01:38:43;;;;;;;1.50;1.38;;;17.90;34.40;;;;;;5073503;28;20616;-82
2022/03/06 01:41:09;;;;;;;1.58;1.30;;;17.90;34.40;;;;;;5074458;28;20184;-83
2022/03/06 01:43:35;;;;;;;1.48;1.38;;;17.90;34.40;;;;;;5074644;28;20573;-82
2022/03/06 01:46:02;;;;;;;1.95;1.58;;;17.90;34.50;;;;;;5072977;28;20157;-83
2022/03/06 01:48:29;;;;;;;1.48;1.38;;;17.90;34.60;;;;;;5055645;28;20196;-83
2022/03/06 01:50:56;;;;;;;1.30;1.20;;;17.90;34.70;;;;;;5038895;28;20182;-84
2022/03/06 01:53:23;;;;;;;1.40;1.30;;;17.80;34.60;;;;;;5055830;28;20197;-83
2022/03/06 01:55:50;;;;;;;2.50;1.42;;;17.90;34.50;;;;;;5038885;28;20181;-82
2022/03/06 01:58:17;;;;;;;1.45;1.35;;;17.80;34.50;;;;;;5038611;28;20185;-82
2022/03/06 02:00:44;;;;;;;2.45;1.48;;;17.80;34.50;;;;;;5038955;28;20594;-83
2022/03/06 02:03:11;;;;;;;1.40;1.30;;;17.90;34.60;;;;;;5056334;28;20145;-83
2022/03/06 02:05:38;;;;;;;1.50;1.40;;;17.90;34.50;;;;;;5022277;28;20177;-82
2022/03/06 02:08:05;;;;;;;1.85;1.38;;;17.90;34.60;;;;;;5039032;28;20216;-83
2022/03/06 02:10:32;;;;;;;2.33;1.58;;;17.80;34.70;;;;;;5073374;28;20623;-83
2022/03/06 02:12:58;;;;;;;1.70;1.40;;;17.80;34.60;;;;;;5056839;28;20560;-82
2022/03/06 02:15:25;;;;;;;1.80;1.48;;;17.80;34.70;;;;;;5077519;28;20164;-83
2022/03/06 02:17:50;;;;;;;1.65;1.55;;;17.80;34.70;;;;;;5077605;28;20165;-83
2022/03/06 02:20:19;;;;;;;1.40;1.30;;;17.80;34.80;;;;;;5077228;28;20153;-82
2022/03/06 02:22:50;;;;;;;1.95;1.58;;;17.80;34.70;;;;;;5076942;28;20158;-83
2022/03/06 02:25:21;;;;;;;1.45;1.20;;;17.80;34.80;;;;;;5057602;28;20268;-83
2022/03/06 02:27:51;;;;;;;1.33;1.23;;;17.80;34.80;;;;;;5038979;28;20616;-84
2022/03/06 02:30:21;;;;;;;2.28;1.50;;;17.80;34.80;;;;;;5022404;28;20216;-83
2022/03/06 02:32:48;;;;;;;1.52;1.40;;;17.80;35.00;;;;;;5055127;28;20203;-83
2022/03/06 02:35:13;;;;;;;1.52;1.40;;;17.80;34.80;;;;;;5043275;28;20219;-82
2022/03/06 02:37:42;;;;;;;1.92;1.48;;;17.80;34.80;;;;;;5042755;28;20164;-83
2022/03/06 02:40:11;;;;;;;1.40;1.27;;;17.90;34.90;;;;;;5058233;28;20176;-83
2022/03/06 02:42:38;;;;;;;1.42;1.30;;;17.80;34.90;;;;;;5041703;28;20589;-83
2022/03/06 02:45:11;;;;;;;2.33;1.60;;;17.80;34.90;;;;;;5075714;28;20145;-83
2022/03/06 02:47:38;;;;;;;1.45;1.35;;;17.80;35.00;;;;;;5025168;28;20208;-82
2022/03/06 02:50:07;;;;;;;1.67;1.30;;;17.80;35.00;;;;;;5058395;28;20212;-83
2022/03/06 02:52:34;;;;;;;1.77;1.27;;;17.70;35.00;;;;;;5041345;28;20272;-82
2022/03/06 02:55:01;;;;;;;1.48;1.38;;;17.80;35.10;;;;;;5057656;28;20655;-83
2022/03/06 02:57:28;;;;;;;2.30;1.20;;;17.80;35.00;;;;;;5041253;28;20189;-82
2022/03/06 02:59:55;;;;;;;1.88;1.50;;;17.80;35.00;;;;;;5041121;28;20542;-82
2022/03/06 03:02:22;;;;;;;2.03;1.40;;;17.80;35.10;;;;;;5024606;28;20211;-83
2022/03/06 03:04:49;;;;;;;1.65;1.30;;;17.80;35.10;;;;;;5024661;28;20172;-83
2022/03/06 03:07:15;;;;;;;1.38;1.27;;;17.70;35.10;;;;;;5024263;28;20244;-83
2022/03/06 03:09:43;;;;;;;1.35;1.25;;;17.80;35.10;;;;;;5041410;28;20191;-82
2022/03/06 03:12:11;;;;;;;1.85;1.48;;;17.80;35.10;;;;;;5041236;28;20246;-83
2022/03/06 03:14:39;;;;;;;1.50;1.40;;;17.70;35.10;;;;;;5041735;28;20249;-83
2022/03/06 03:17:06;;;;;;;1.55;1.45;;;17.80;35.20;;;;;;5024694;28;20185;-82
2022/03/06 03:19:34;;;;;;;1.50;1.30;;;17.70;35.20;;;;;;5057587;28;20180;-83
2022/03/06 03:22:01;;;;;;;1.52;1.42;;;17.70;35.20;;;;;;5057925;28;20571;-83
2022/03/06 03:24:29;;;;;;;1.52;1.42;;;17.70;35.20;;;;;;5024693;28;20673;-83
2022/03/06 03:26:57;;;;;;;1.65;1.42;;;17.80;35.30;;;;;;5041009;28;20769;-82
2022/03/06 03:29:24;;;;;;;2.10;1.52;;;17.80;35.30;;;;;;5041088;28;20263;-83
2022/03/06 03:31:52;;;;;;;1.40;1.30;;;17.70;35.20;;;;;;5041353;28;20180;-83
2022/03/06 03:34:19;;;;;;;1.85;1.33;;;17.70;35.30;;;;;;5040787;28;20235;-82
2022/03/06 03:36:46;;;;;;;1.50;1.27;;;17.80;35.30;;;;;;5057672;28;20263;-82
2022/03/06 03:39:14;;;;;;;1.58;1.48;;;17.80;35.40;;;;;;5057803;28;20277;-82
2022/03/06 03:41:39;;;;;;;1.40;1.27;;;17.80;35.30;;;;;;5041132;28;20661;-82
2022/03/06 03:44:07;;;;;;;1.30;1.20;;;17.70;35.40;;;;;;5059077;28;20153;-82
2022/03/06 03:46:32;;;;;;;1.83;1.52;;;17.70;35.40;;;;;;5044405;28;20679;-83
2022/03/06 03:49:00;;;;;;;2.50;1.40;;;17.70;35.40;;;;;;5045417;28;20164;-84
2022/03/06 03:51:28;;;;;;;1.50;1.40;;;17.80;35.40;;;;;;5027978;28;20176;-83
2022/03/06 03:53:56;;;;;;;1.40;1.30;;;17.70;35.40;;;;;;5028228;28;20175;-82
2022/03/06 03:56:24;;;;;;;1.50;1.20;;;17.70;35.40;;;;;;5061464;28;20188;-83
2022/03/06 03:58:52;;;;;;;1.45;1.27;;;17.70;35.50;;;;;;5044780;28;20188;-82
2022/03/06 04:01:20;;;;;;;1.40;1.30;;;17.70;36.20;;;;;;5044682;28;20242;-82
2022/03/06 04:03:47;;;;;;;1.70;1.60;;;17.70;35.50;;;;;;5028027;28;20185;-82
2022/03/06 04:06:15;;;;;;;1.55;1.45;;;17.60;35.40;;;;;;5060824;28;20531;-83
2022/03/06 04:08:42;;;;;;;1.80;1.40;;;17.70;35.50;;;;;;5044507;28;20279;-82
2022/03/06 04:11:09;;;;;;;1.63;1.23;;;17.70;35.50;;;;;;5061302;28;20177;-82
2022/03/06 04:13:37;;;;;;;1.60;1.35;;;17.70;35.50;;;;;;5044428;28;20238;-82
2022/03/06 04:16:04;;;;;;;1.30;1.20;;;17.70;35.60;;;;;;5044473;28;20187;-83
2022/03/06 04:18:31;;;;;;;1.60;1.50;;;17.70;35.50;;;;;;5044359;28;20275;-82
2022/03/06 04:20:58;;;;;;;1.33;1.23;;;17.60;35.50;;;;;;5060909;28;20188;-83
2022/03/06 04:23:25;;;;;;;1.42;1.23;;;17.70;35.60;;;;;;5044144;28;20181;-82
2022/03/06 04:25:52;;;;;;;1.70;1.13;;;17.70;35.70;;;;;;5060489;28;20226;-82
2022/03/06 04:28:19;;;;;;;1.33;1.20;;;17.70;35.70;;;;;;5043538;28;20216;-83
2022/03/06 04:30:45;;;;;;;1.40;1.20;;;17.70;35.70;;;;;;5044059;28;20180;-82
2022/03/06 04:33:11;;;;;;;1.58;1.27;;;17.70;35.70;;;;;;5060359;28;20204;-82
2022/03/06 04:35:38;;;;;;;2.28;1.48;;;17.60;35.70;;;;;;5077906;28;20167;-82
2022/03/06 04:38:05;;;;;;;1.50;1.30;;;17.70;36.20;;;;;;5044010;28;20184;-83
2022/03/06 04:40:31;;;;;;;1.60;1.27;;;17.70;35.80;;;;;;5027609;28;20616;-83
2022/03/06 04:42:58;;;;;;;1.30;1.20;;;17.60;36.30;;;;;;5043680;28;20212;-82
2022/03/06 04:45:25;;;;;;;1.40;1.30;;;17.70;35.80;;;;;;5061446;28;20172;-82
2022/03/06 04:47:51;;;;;;;1.50;1.40;;;17.70;35.80;;;;;;5044832;28;20230;-82
2022/03/06 04:50:18;;;;;;;1.40;1.23;;;17.60;35.70;;;;;;5077622;28;20164;-83
2022/03/06 04:52:44;;;;;;;0.98;0.98;;;17.60;35.80;;;;;;5060851;28;20188;-82
2022/03/06 04:55:11;;;;;;;1.52;1.30;;;17.70;35.90;;;;;;5077524;28;20243;-83
2022/03/06 04:57:36;;;;;;;1.70;1.50;;;17.60;35.80;;;;;;5060161;28;20166;-84
2022/03/06 05:00:04;;;;;;;1.63;1.30;;;17.70;35.80;;;;;;5044956;28;20584;-82
2022/03/06 05:02:30;;;;;;;2.08;1.30;;;17.60;35.90;;;;;;5060602;28;20156;-83
2022/03/06 05:04:59;;;;;;;1.27;1.17;;;17.70;35.90;;;;;;5077213;28;20638;-82
2022/03/06 05:07:28;;;;;;;1.20;1.10;;;17.60;35.80;;;;;;5026621;28;20204;-83
2022/03/06 05:09:57;;;;;;;1.52;1.23;;;17.60;35.90;;;;;;5043456;28;20542;-83
2022/03/06 05:12:25;;;;;;;1.27;1.17;;;17.60;36.00;;;;;;5026525;28;20191;-83
2022/03/06 05:14:53;;;;;;;1.17;1.08;;;17.60;36.60;;;;;;5043170;28;20181;-83
2022/03/06 05:17:21;;;;;;;1.48;1.30;;;17.60;36.00;;;;;;5026441;28;20188;-83
2022/03/06 05:19:49;;;;;;;1.50;1.20;;;17.60;36.00;;;;;;5059920;28;20204;-83
2022/03/06 05:22:17;;;;;;;0.95;0.93;;;17.60;36.00;;;;;;5059809;28;20177;-83
2022/03/06 05:24:44;;;;;;;1.27;1.17;;;17.70;36.00;;;;;;5043126;28;20587;-83
2022/03/06 05:27:12;;;;;;;1.42;1.20;;;17.60;35.90;;;;;;5042666;28;20571;-83
2022/03/06 05:29:39;;;;;;;1.30;1.20;;;17.60;35.90;;;;;;5042955;28;20200;-83
2022/03/06 05:32:06;;;;;;;1.88;1.10;;;17.60;36.00;;;;;;5042946;28;20176;-83
2022/03/06 05:34:34;;;;;;;1.42;1.30;;;17.60;36.00;;;;;;5025981;28;20285;-83
2022/03/06 05:37:02;;;;;;;1.52;1.20;;;17.60;36.00;;;;;;5026525;28;20196;-82
2022/03/06 05:39:29;;;;;;;1.38;1.10;;;17.60;36.00;;;;;;5026143;28;20211;-82
2022/03/06 05:41:55;;;;;;;1.92;1.38;;;17.60;36.00;;;;;;5058972;28;20238;-83
2022/03/06 05:44:24;;;;;;;1.30;1.20;;;17.60;36.10;;;;;;5042079;28;20176;-83
2022/03/06 05:46:50;;;;;;;1.77;1.40;;;17.60;36.10;;;;;;5059806;28;20218;-82
2022/03/06 05:49:16;;;;;;;1.48;1.20;;;17.60;36.10;;;;;;5043910;28;20259;-83
2022/03/06 05:51:44;;;;;;;1.40;1.20;;;17.60;36.10;;;;;;5025631;28;20198;-83
2022/03/06 05:54:11;;;;;;;1.50;1.40;;;17.60;36.10;;;;;;5059300;28;20577;-82
2022/03/06 05:56:39;;;;;;;1.25;1.13;;;17.60;36.20;;;;;;5025723;28;20193;-83
2022/03/06 05:59:05;;;;;;;1.60;1.42;;;17.60;36.20;;;;;;5076602;28;20184;-82
2022/03/06 06:01:32;;;;;;;1.40;1.23;;;17.50;36.20;;;;;;5059489;28;20175;-84
2022/03/06 06:03:58;;;;;;;1.40;1.20;;;17.60;36.20;;;;;;5076110;28;20192;-83
2022/03/06 06:06:25;;;;;;;1.40;1.30;;;17.60;36.30;;;;;;5094160;28;20187;-84
2022/03/06 06:08:50;;;;;;;1.30;1.20;;;17.60;36.20;;;;;;5075856;28;20167;-84
2022/03/06 06:11:17;;;;;;;1.52;1.42;;;17.60;36.20;;;;;;5059429;28;20165;-83
2022/03/06 06:13:43;;;;;;;1.48;1.38;;;17.60;36.20;;;;;;5093993;28;20175;-84
2022/03/06 06:16:08;;;;;;;1.30;1.20;;;17.60;36.20;;;;;;5059547;28;20169;-83
2022/03/06 06:18:34;;;;;;;1.70;1.10;;;17.60;36.20;;;;;;5076380;28;20239;-83
2022/03/06 06:21:00;;;;;;;1.60;1.50;;;17.60;36.10;;;;;;5075770;28;20164;-85
2022/03/06 06:23:25;;;;;;;1.73;1.20;;;17.70;36.20;;;;;;5075824;28;20163;-85
2022/03/06 06:25:51;;;;;;;1.33;1.20;;;17.60;36.20;;;;;;5076348;28;20592;-85
2022/03/06 06:28:16;;;;;;;1.73;1.17;;;17.60;36.80;;;;;;5075058;28;20188;-84
2022/03/06 06:30:42;;;;;;;1.70;1.10;;;17.60;36.20;;;;;;5057680;28;20650;-85
2022/03/06 06:33:09;;;;;;;1.58;1.40;;;17.60;36.20;;;;;;5092264;28;20208;-84
2022/03/06 06:35:35;;;;;;;1.13;1.02;;;17.60;36.20;;;;;;5092728;28;20164;-85
2022/03/06 06:38:02;;;;;;;1.25;1.00;;;17.60;36.20;;;;;;5041442;28;20184;-84
2022/03/06 06:40:28;;;;;;;1.27;1.17;;;17.60;36.20;;;;;;5058681;28;20171;-84
2022/03/06 06:42:53;;;;;;;1.42;1.30;;;17.60;36.20;;;;;;5075420;28;20161;-83
2022/03/06 06:45:19;;;;;;;1.40;1.30;;;17.60;36.20;;;;;;5058746;28;20157;-84
2022/03/06 06:47:44;;;;;;;1.33;1.23;;;17.50;36.20;;;;;;5041999;28;20224;-85
2022/03/06 06:50:10;;;;;;;1.65;1.30;;;17.70;36.20;;;;;;5093572;28;20696;-83
2022/03/06 06:52:36;;;;;;;1.23;1.13;;;17.60;36.30;;;;;;5042078;28;20165;-84
2022/03/06 06:55:02;;;;;;;1.30;1.20;;;17.60;36.20;;;;;;5058262;28;20543;-82
2022/03/06 06:57:29;;;;;;;1.63;1.35;;;17.70;36.20;;;;;;5092218;28;20508;-85
2022/03/06 06:59:55;;;;;;;1.20;1.10;;;17.60;36.20;;;;;;5058071;28;20207;-83
2022/03/06 07:02:21;;;;;;;1.20;1.10;;;17.60;36.20;;;;;;5074860;28;20164;-85
2022/03/06 07:04:47;;;;;;;1.30;1.10;;;17.60;36.20;;;;;;5058242;28;20157;-84
2022/03/06 07:07:12;;;;;;;1.83;1.40;;;17.70;36.30;;;;;;5057960;28;20249;-84
2022/03/06 07:09:38;;;;;;;1.17;1.08;;;17.70;36.20;;;;;;5075030;28;20653;-84
2022/03/06 07:12:06;;;;;;;1.55;1.17;;;17.70;36.20;;;;;;5093218;28;20254;-84
2022/03/06 07:14:32;;;;;;;2.08;1.33;;;17.70;36.20;;;;;;5075543;28;20202;-84
2022/03/06 07:16:58;;;;;;;1.25;1.15;;;17.70;36.20;;;;;;5059048;28;20192;-83
2022/03/06 07:19:24;;;;;;;1.20;1.10;;;17.70;36.20;;;;;;5076656;28;20507;-84
2022/03/06 07:21:50;;;;;;;1.40;1.30;;;17.70;36.20;;;;;;5079647;28;20180;-83
2022/03/06 07:24:16;;;;;;;1.33;1.20;;;17.70;36.20;;;;;;5097626;28;20615;-83
2022/03/06 07:26:42;;;;;;;1.55;1.30;;;17.70;36.20;;;;;;5062374;28;20215;-84
2022/03/06 07:29:07;;;;;;;1.33;1.23;;;17.60;36.10;;;;;;5062837;28;20168;-84
2022/03/06 07:31:33;;;;;;;1.40;1.30;;;17.80;35.90;;;;;;5062488;28;20169;-83
2022/03/06 07:33:59;;;;;;;1.52;1.30;;;17.80;35.90;;;;;;5058953;28;20239;-84
2022/03/06 07:36:25;;;;;;;1.17;1.05;;;17.80;36.00;;;;;;5059083;28;20161;-84
2022/03/06 07:38:51;;;;;;;1.45;1.35;;;17.80;35.90;;;;;;5075661;28;20158;-83
2022/03/06 07:41:17;;;;;;;2.28;1.38;;;17.80;35.80;;;;;;5075584;28;20154;-83
2022/03/06 07:43:43;;;;;;;1.77;1.00;;;17.90;35.80;;;;;;5058667;28;20573;-84
2022/03/06 07:46:09;;;;;;;1.35;1.15;;;17.90;35.80;;;;;;5058520;28;20165;-84
2022/03/06 07:48:35;;;;;;;1.35;1.20;;;17.90;35.90;;;;;;5059179;28;20182;-84
2022/03/06 07:51:01;;;;;;;0.90;0.90;;;17.90;35.90;;;;;;5075200;28;20688;-84
2022/03/06 07:53:27;;;;;;;1.27;1.17;;;17.90;35.80;;;;;;5058595;28;20173;-83
2022/03/06 07:55:53;;;;;;;1.20;1.10;;;17.90;35.60;;;;;;5075793;28;20608;-83
2022/03/06 07:58:19;;;;;;;1.10;1.00;;;18.00;35.60;;;;;;5076155;28;20173;-84
2022/03/06 08:00:45;;;;;;;2.67;1.40;;;18.10;35.30;;;;;;5077231;28;20162;-84
2022/03/06 08:03:11;;;;;;;1.85;1.10;;;18.10;35.30;;;;;;5075642;28;20149;-85
2022/03/06 08:05:37;;;;;;;3.65;1.00;;;18.00;35.20;;;;;;5059389;28;20169;-83
2022/03/06 08:08:03;;;;;;;1.73;1.30;;;18.20;35.20;;;;;;5058921;28;20197;-84
2022/03/06 08:10:29;;;;;;;2.50;1.40;;;18.30;34.90;;;;;;5058713;28;20219;-84
2022/03/06 08:12:55;;;;;;;1.20;1.00;;;18.20;35.00;;;;;;5075621;28;20153;-85
2022/03/06 08:15:20;;;;;;;1.20;1.10;;;18.30;34.80;;;;;;5059455;28;20219;-84
2022/03/06 08:17:46;;;;;;;2.38;1.00;;;18.30;34.80;;;;;;5075667;28;20629;-84
2022/03/06 08:20:12;;;;;;;1.77;1.00;;;18.40;34.60;;;;;;5076464;28;20730;-84
2022/03/06 08:22:38;;;;;;;1.90;0.90;;;18.40;34.50;;;;;;5075912;28;20614;-84
2022/03/06 08:25:04;;;;;;;1.00;0.90;;;18.50;34.40;;;;;;5076712;28;20158;-84
2022/03/06 08:27:32;;;;;;;1.92;1.08;;;18.40;34.40;;;;;;5075832;28;20265;-83
2022/03/06 08:29:58;;;;;;;3.28;1.10;;;18.40;34.50;;;;;;5075322;28;20202;-84
2022/03/06 08:32:24;;;;;;;3.45;1.20;;;18.40;34.40;;;;;;5075333;28;20177;-84
2022/03/06 08:34:51;;;;;;;1.67;1.20;;;18.50;34.30;;;;;;5058247;28;20262;-84
2022/03/06 08:37:18;;;;;;;1.15;1.05;;;18.50;34.30;;;;;;5076088;28;20200;-84
2022/03/06 08:39:46;;;;;;;1.52;0.88;;;18.50;34.30;;;;;;5075261;28;20145;-84
2022/03/06 08:42:13;;;;;;;0.95;0.88;;;18.50;34.10;;;;;;5075534;28;20183;-83
2022/03/06 08:44:38;;;;;;;1.30;1.02;;;18.60;34.10;;;;;;5074584;28;20203;-83
2022/03/06 08:47:05;;;;;;;1.23;0.80;;;18.60;34.20;;;;;;5075580;28;20189;-84
2022/03/06 08:49:31;;;;;;;1.98;1.00;;;18.60;34.00;;;;;;5074785;28;20158;-83
2022/03/06 08:51:57;;;;;;;3.63;0.90;;;18.60;34.00;;;;;;5058247;28;20260;-83
2022/03/06 08:54:23;;;;;;;3.78;1.20;;;18.60;33.90;;;;;;5075172;28;20611;-84
2022/03/06 08:56:49;;;;;;;3.08;0.80;;;18.60;34.00;;;;;;5074716;28;20153;-83
2022/03/06 08:59:15;;;;;;;1.00;0.90;;;18.60;33.90;;;;;;5074796;28;20154;-84
2022/03/06 09:01:41;;;;;;;0.98;0.90;;;18.60;34.00;;;;;;5074814;28;20192;-85
2022/03/06 09:04:11;;;;;;;3.60;1.10;;;18.70;33.90;;;;;;5075516;28;20149;-84
2022/03/06 09:06:38;;;;;;;4.18;1.05;;;18.70;33.90;;;;;;5027606;28;20209;-84
2022/03/06 09:09:04;;;;;;;2.35;1.10;;;18.70;33.90;;;;;;5063001;28;20219;-85
2022/03/06 09:11:34;;;;;;;1.80;1.05;;;18.70;33.70;;;;;;5078417;28;20606;-84
2022/03/06 09:14:00;;;;;;;1.52;0.95;;;18.80;33.80;;;;;;5024113;28;20181;-84
2022/03/06 09:16:26;;;;;;;2.15;0.98;;;18.70;33.70;;;;;;5073716;28;20272;-84
2022/03/06 09:18:52;;;;;;;1.30;0.95;;;18.70;33.70;;;;;;5074018;28;20164;-85
2022/03/06 09:21:21;;;;;;;3.17;1.00;;;18.70;33.60;;;;;;5057758;28;20252;-84
2022/03/06 09:23:47;;;;;;;3.00;0.98;;;18.80;33.40;;;;;;5039946;28;20181;-84
2022/03/06 09:26:13;;;;;;;2.58;1.08;;;18.80;33.50;;;;;;5073677;28;20161;-85
2022/03/06 09:28:39;;;;;;;2.72;0.98;;;18.70;33.40;;;;;;5073768;28;20168;-84
2022/03/06 09:31:05;;;;;;;0.85;0.80;;;18.80;33.30;;;;;;5073912;28;20158;-84
2022/03/06 09:33:30;;;;;;;0.98;0.70;;;18.90;33.20;;;;;;5081322;28;20227;-84
2022/03/06 09:35:56;;;;;;;1.63;0.82;;;18.90;33.20;;;;;;5044465;28;20172;-84
2022/03/06 09:38:26;;;;;;;1.33;0.90;;;18.90;33.10;;;;;;5062772;28;20176;-85
2022/03/06 09:40:54;;;;;;;2.67;0.80;;;18.90;33.10;;;;;;5043879;28;20188;-84
2022/03/06 09:43:22;;;;;;;2.33;0.98;;;18.80;33.00;;;;;;5076303;28;20180;-85
2022/03/06 09:45:50;;;;;;;1.63;0.90;;;18.80;33.20;;;;;;5044141;28;20223;-85
2022/03/06 09:48:19;;;;;;;1.23;0.73;;;18.80;33.10;;;;;;5043359;28;20240;-85
2022/03/06 09:50:47;;;;;;;3.38;1.00;;;18.80;33.20;;;;;;5042437;28;20547;-85
2022/03/06 09:53:15;;;;;;;2.20;0.95;;;18.80;33.20;;;;;;5042840;28;20541;-85
2022/03/06 09:55:43;;;;;;;5.15;1.00;;;18.90;33.00;;;;;;5041429;28;20189;-84
2022/03/06 09:58:11;;;;;;;1.63;0.60;;;18.90;33.00;;;;;;5042549;28;20242;-85
2022/03/06 10:00:37;;;;;;;2.75;0.90;;;18.80;33.10;;;;;;5060249;28;20536;-84
2022/03/06 10:03:03;;;;;;;3.15;0.77;;;18.70;33.30;;;;;;5065839;28;20268;-85
2022/03/06 10:05:35;;;;;;;1.13;0.77;;;18.80;33.10;;;;;;5079041;28;20187;-85
2022/03/06 10:08:21;;;;;;;2.78;0.82;;;18.80;33.10;;;;;;5061932;28;20183;-86
2022/03/06 10:10:57;;;;;;;1.02;0.80;;;18.80;33.10;;;;;;5059944;28;20157;-85
2022/03/06 10:13:35;;;;;;;1.42;0.93;;;18.80;33.30;;;;;;5060375;28;20180;-86
2022/03/06 10:16:16;;;;;;;3.33;0.98;;;18.80;33.30;;;;;;5062915;28;20585;-86
2022/03/06 10:18:52;;;;;;;3.67;0.80;;;18.80;33.30;;;;;;5065843;28;20283;-87
2022/03/06 10:21:26;;;;;;;3.78;1.20;;;18.80;33.40;;;;;;5062517;28;20181;-86
2022/03/06 10:24:01;;;;;;;5.35;1.20;;;18.80;33.50;;;;;;5045640;28;20248;-86
2022/03/06 10:26:34;;;;;;;2.13;0.77;;;18.80;33.50;;;;;;5047809;28;20262;-86
2022/03/06 10:29:11;;;;;;;1.05;0.80;;;18.90;33.10;;;;;;5061853;28;20184;-85
2022/03/06 10:31:53;;;;;;;2.13;0.82;;;18.90;33.10;;;;;;5059838;28;20271;-85
2022/03/06 10:34:45;;;;;;;2.80;0.95;;;18.90;33.30;;;;;;5026480;28;20267;-86
2022/03/06 10:37:15;;;;;;;2.75;0.90;;;18.90;33.20;;;;;;5075060;28;20180;-86
2022/03/06 10:39:48;;;;;;;1.75;0.75;;;19.00;33.20;;;;;;5041539;28;20684;-86
2022/03/06 10:42:25;;;;;;;5.25;0.95;;;18.90;33.20;;;;;;5057016;28;20177;-86
2022/03/06 10:44:56;;;;;;;1.65;0.75;;;19.00;33.10;;;;;;5056881;28;20548;-86
2022/03/06 10:47:27;;;;;;;1.35;1.00;;;19.00;33.20;;;;;;5056651;28;20274;-86
2022/03/06 10:50:05;;;;;;;1.00;0.70;;;19.10;33.30;;;;;;5057557;28;20331;-86
2022/03/06 10:52:43;;;;;;;3.17;1.00;;;19.00;33.10;;;;;;5057465;28;20205;-85
2022/03/06 10:55:14;;;;;;;2.60;0.90;;;19.00;33.10;;;;;;5072262;28;20189;-86
2022/03/06 10:57:43;;;;;;;0.90;0.75;;;19.10;33.00;;;;;;5039886;28;20185;-85
2022/03/06 11:00:11;;;;;;;3.30;1.00;;;19.00;33.00;;;;;;5056612;28;20224;-86
2022/03/06 11:02:38;;;;;;;6.13;0.85;;;19.10;32.90;;;;;;5055850;28;20183;-86
2022/03/06 11:05:07;;;;;;;1.02;0.70;;;19.10;33.10;;;;;;5039400;28;20635;-85
2022/03/06 11:07:34;;;;;;;3.00;0.80;;;19.10;33.20;;;;;;5055941;28;20212;-86
2022/03/06 11:10:01;;;;;;;1.25;0.80;;;19.10;33.10;;;;;;5056026;28;20185;-86
2022/03/06 11:12:28;;;;;;;2.08;0.60;;;19.10;33.40;;;;;;5055051;28;20220;-85
2022/03/06 11:14:55;;;;;;;5.40;1.00;;;19.10;33.60;;;;;;5053968;28;20185;-85
2022/03/06 11:17:22;;;;;;;2.47;1.08;;;19.10;33.30;;;;;;5038749;28;20185;-86
2022/03/06 11:19:48;;;;;;;2.35;0.90;;;19.10;33.30;;;;;;5055897;28;20307;-86
2022/03/06 11:22:24;;;;;;;3.17;0.80;;;19.20;33.30;;;;;;5055374;28;20184;-86
2022/03/06 11:24:52;;;;;;;4.07;1.00;;;19.10;33.30;;;;;;5011160;28;20684;-86
2022/03/06 11:27:35;;;;;;;4.63;0.90;;;19.10;33.30;;;;;;4995184;28;20705;-85
2022/03/06 11:30:05;;;;;;;2.00;0.70;;;19.10;33.20;;;;;;5011010;28;20197;-85
2022/03/06 11:32:33;;;;;;;4.80;0.82;;;19.10;33.30;;;;;;4994936;28;20622;-85
2022/03/06 11:35:06;;;;;;;1.88;0.70;;;19.10;33.20;;;;;;4994472;28;20207;-85
2022/03/06 11:37:46;;;;;;;3.95;0.80;;;19.20;33.50;;;;;;4994634;28;20189;-85
2022/03/06 11:40:38;;;;;;;2.47;0.95;;;19.10;33.50;;;;;;4994825;28;20286;-84
2022/03/06 11:43:06;;;;;;;3.78;0.90;;;19.10;33.50;;;;;;4996591;28;20187;-85
2022/03/06 11:45:46;;;;;;;3.08;0.80;;;19.10;33.60;;;;;;4997332;28;20183;-85
2022/03/06 11:48:46;;;;;;;3.03;1.00;;;19.10;33.70;;;;;;5014396;28;20566;-85
2022/03/06 11:51:27;;;;;;;2.83;0.70;;;19.10;33.70;;;;;;5050487;28;20182;-85
2022/03/06 11:54:06;;;;;;;2.10;0.70;;;19.10;33.60;;;;;;5050642;28;20584;-85
2022/03/06 11:56:45;;;;;;;2.63;0.73;;;19.10;33.60;;;;;;5051406;28;20181;-85
2022/03/06 11:59:28;;;;;;;2.55;0.80;;;19.10;33.60;;;;;;5052095;28;20583;-85
2022/03/06 12:02:08;;;;;;;5.93;0.65;;;19.10;33.80;;;;;;5052367;28;20569;-85
2022/03/06 12:04:46;;;;;;;2.08;0.70;;;19.10;33.40;;;;;;5052156;28;20232;-84
2022/03/06 12:07:15;;;;;;;2.05;0.80;;;19.10;33.60;;;;;;5039308;28;20276;-84
2022/03/06 12:09:45;;;;;;;6.45;1.15;;;19.00;33.50;;;;;;5022226;28;20182;-85
2022/03/06 12:12:17;;;;;;;3.97;1.08;;;19.10;33.30;;;;;;5022019;28;20186;-86
2022/03/06 12:14:47;;;;;;;3.33;1.20;;;19.20;33.40;;;;;;5021980;28;20185;-85
2022/03/06 12:17:21;;;;;;;2.45;0.90;;;19.20;33.20;;;;;;5055642;28;20181;-85
2022/03/06 12:20:12;;;;;;;2.75;0.85;;;19.20;33.30;;;;;;5037862;28;20181;-85
2022/03/06 12:22:48;;;;;;;2.33;0.80;;;19.20;33.40;;;;;;5037828;28;20185;-84
2022/03/06 12:25:24;;;;;;;5.40;1.00;;;19.20;33.00;;;;;;5054516;28;20158;-85
2022/03/06 12:28:16;;;;;;;3.03;0.65;;;19.20;33.10;;;;;;5021660;28;20251;-85
2022/03/06 12:30:47;;;;;;;1.20;0.70;;;19.30;33.10;;;;;;5070654;28;20205;-85
2022/03/06 12:33:34;;;;;;;2.95;0.90;;;19.20;33.10;;;;;;5023997;28;20209;-85
2022/03/06 12:36:16;;;;;;;4.95;0.75;;;19.20;33.00;;;;;;5074166;28;20249;-85
2022/03/06 12:38:44;;;;;;;3.55;0.80;;;19.20;33.80;;;;;;5042073;28;20589;-86
2022/03/06 12:41:12;;;;;;;1.48;0.60;;;19.20;34.10;;;;;;5040637;28;20206;-84
2022/03/06 12:43:46;;;;;;;2.25;0.70;;;19.10;32.90;;;;;;5056809;28;20272;-86
2022/03/06 12:46:13;;;;;;;1.80;0.75;;;19.20;32.90;;;;;;5040500;28;20260;-85
2022/03/06 12:48:38;;;;;;;3.10;0.80;;;19.20;33.10;;;;;;5041131;28;20193;-85
2022/03/06 12:51:06;;;;;;;1.88;0.90;;;19.10;33.10;;;;;;5073691;28;20172;-85
2022/03/06 12:53:33;;;;;;;3.25;0.82;;;19.20;33.00;;;;;;5055683;28;20613;-85